Welcome to our Virtual Airline
Sign-in:

Flight MFC3322

  • Submitted By: Norm Richards
  • Departure Airport: Koyukuk (KYU)
  • Arrival Airport: Kaltag (KAL)
  • Aircraft: BEECH 18 (NB018MM)
  • Flight Time: 00.32.16
  • Date Submitted: 2018/09/19
  • Route: STOP-OVER AT NULATO (NUL)
  • Status: Accepted
Flight Details
Gross Revenue:
(4 load / $ 44.00 per unit
$ 176.00
Fuel Cost:
(9.07185 fuel used @ 5.1 / unit)
$ 46.27

Additional Log Information:

View Log

FS[15:05] ----- Flight Opened -----
FS[15:05] Cigar Box - 1.1.4.0
FS[15:05] FS: Prepar3D V4
FS[15:05] FSUIPC: v5.121
FS[15:05] Flight Number: MFC3322
FS[15:05] FS Aircraft: C207 Skywagon Bush 1
FS[15:05] FS Model: C207
FS[15:05] FS Type: Cessna
FS[15:05] Departure: KYU
FS[15:05] Arrival: KAL
FS[15:05] Flight Level: 2500
FS[15:05] Flight Type: H
FS[15:05] Passengers: 4
FS[15:05] FOB: 150 lbs
FS[15:05] Gate: 2 - KYU
FS[15:05] Crash Detection: Disabled
FS[15:05] Crash Detection Aircraft: Disabled
FS[15:05] Engines: 1 Piston
FS[15:05] NOTE: Boarding has started
FS[15:05] Parking Brake: Engaged
FS[15:05] Main Door Closed
FS[15:05] COM1: 123.00
FS[15:05] COM2: 122.80
FS[15:05] Transponder: 5743
FS[15:05] NAV1: 116.60
FS[15:05] NAV2: 110.50
FS[15:05] ADF1: 890.0
FS[15:05] ADF2: 890.0
FS[15:05] Navigation Mode: NAV
FS[15:05] Engine 1: Started
FS[15:06] Light Data: Navigation ON
FS[15:06] Light Data: Beacon ON
FS[15:06] Light Data: Landing lights ON
FS[15:06] Light Data: Taxi lights ON
FS[15:06] Light Data: Strobe lights ON
FS[15:06] Light Data: Instrument lights ON
FS[15:06] Light Data: Recognition lights ON
FS[15:06] Light Data: Wing lights ON
FS[15:06] Light Data: Logo lights ON
FS[15:06] Light Data: Cabin lights ON
FS[15:06] Light Data: Landing lights OFF
FS[15:06] Light Data: Taxi lights OFF
FS[15:06] Parking Brake: Released
FS[15:06] COM1: 122.90
FS[15:06] NOTE: Pushing back
FS[15:07] NOTE: Taxi started
FS[15:08] Flaps: Position 1
FS[15:08] NOTE: ----- TAKE OFF -----
FS[15:08] GS: 40 knots
FS[15:08] TAS: 38 knots
FS[15:08] IAS: 28 knots
FS[15:08] VS: 16 fpm
FS[15:08] FOB: 149 lbs
FS[15:08] Heading: 269°
FS[15:08] Pitch: 4°
FS[15:08] Bank: 0°
FS[15:08] Aircraft Weight: 2239.66 lbs
FS[15:08] Nearest Airport: KYU
FS[15:08] Distance: 0.26 miles
FS[15:08] Runway: ???
FS[15:08] Ground Surface: Gravel
FS[15:08] Ground Condition: Wet
FS[15:08] NOTE: Weather Report
FS[15:08] Wind Heading: 116°
FS[15:08] Wind Speed: 6 knots
FS[15:08] OAT: 7° C
FS[15:08] TAT: 7° C
FS[15:08] Precipitation: Very Light Rain
FS[15:08] Dew Point: 6° C
FS[15:08] Visibility: 39 miles
FS[15:08] METAR: No METAR available for KYU.
FS[15:08] NOTE: Climb started
FS[15:08] View Mode: Virtual Cockpit
FS[15:08] Flaps: Position 0
FS[15:08] GS: 106 knots
FS[15:08] TAS: 105 knots
FS[15:08] IAS: 109 knots
FS[15:08] VS: 782 fpm
FS[15:08] COM1: 127.00
FS[15:09] Transponder: 2335
FS[15:09] Turbulence: Light
FS[15:09] NOTE: TOC reached
FS[15:09] NOTE: Cruise started
FS[15:09] GS: 120 knots
FS[15:09] TAS: 125 knots
FS[15:09] IAS: 131 knots
FS[15:09] VS: -36 fpm
FS[15:09] FOB: 146 lbs
FS[15:09] Heading: 248°
FS[15:09] Pitch: 8°
FS[15:09] Bank: 0°
FS[15:09] Aircraft Weight: 2236.76 lbs
FS[15:09] NOTE: TOD reached
FS[15:09] NOTE: Descent started
FS[15:09] GS: 120 knots
FS[15:09] TAS: 126 knots
FS[15:09] IAS: 132 knots
FS[15:09] VS: -502 fpm
FS[15:09] FOB: 146 lbs
FS[15:09] Heading: 249°
FS[15:09] Pitch: 8°
FS[15:09] Bank: 0°
FS[15:09] Aircraft Weight: 2236.76 lbs
FS[15:09] NOTE: On approach
FS[15:09] COM1: 122.90
FS[15:10] Turbulence: None
FS[15:10] Recovery: Flight Saved
FS[15:14] Turbulence: Light
FS[15:14] Flaps: Position 1
FS[15:14] GS: 108 knots
FS[15:14] TAS: 106 knots
FS[15:14] IAS: 110 knots
FS[15:14] VS: 50 fpm
FS[15:15] Flaps: Position 2
FS[15:15] GS: 79 knots
FS[15:15] TAS: 81 knots
FS[15:15] IAS: 80 knots
FS[15:15] VS: 218 fpm
FS[15:15] Flaps: Position 1
FS[15:15] GS: 73 knots
FS[15:15] TAS: 76 knots
FS[15:15] IAS: 74 knots
FS[15:15] VS: -1190 fpm
FS[15:15] NOTE: ----- LANDED -----
FS[15:15] Landing Rate: -196.08 fpm
FS[15:15] GS: 62 knots
FS[15:15] TAS: 61 knots
FS[15:15] IAS: 56 knots
FS[15:15] VS: -195 fpm
FS[15:15] FOB: 140 lbs
FS[15:15] Heading: 200°
FS[15:15] Pitch: 3°
FS[15:15] Bank: 0°
FS[15:15] Aircraft Weight: 2230.31 lbs
FS[15:15] Nearest Airport: KYU
FS[15:15] Distance: 12.29 miles
FS[15:15] Runway: 20 - NUL
FS[15:15] Ground Surface: Gravel
FS[15:15] Ground Condition: Wet
FS[15:15] NOTE: Weather Report
FS[15:15] Wind Heading: 79°
FS[15:15] Wind Speed: 4 knots
FS[15:15] OAT: 7° C
FS[15:15] TAT: 8° C
FS[15:15] Precipitation: Very Light Rain
FS[15:15] Dew Point: 6° C
FS[15:15] Visibility: 39 miles
FS[15:15] METAR: KALB 191851Z 01008KT 10SM FEW039 FEW055 BKN250 23/14 A2996 RMK AO2 SLP145 T02330139KALI 191853Z AUTO 11005KT 10SM FEW037 SCT060 32/23 A2992 RMK AO2 SLP130 T03220228KALK 191856Z AUTO 35004KT 10SM FEW048 23/16 A3003 RMK AO2 RAE05 SLP079 P0000 T02330161KALM 191855Z AUTO 21012G17KT 10SM CLR 30/15 A2996 RMK AO2KALN 191850Z 16007KT 10SM SCT035 31/24 A2998KALO 191854Z 10005KT 10SM CLR 20/19 A2995 RMK AO2 LTG DSNT S RAE31 SLP139 P0015 T02000194KALS 191852Z AUTO 23011G24KT 170V260 10SM CLR 27/03 A3011 RMK AO2 SLP094 T02670028KALW 191853Z VRB03KT 10SM CLR 18/02 A3002 RMK AO2 SLP164 T01780022KALX 191855Z AUTO 00000KT 10SM CLR 33/22 A2999 RMK AO2 T03270222
FS[15:15] View Mode: Virtual Cockpit
FS[15:15] NOTE: Taxi started
FS[15:16] Flaps: Position 0
FS[15:17] NOTE: Arrived
FS[15:17] Parking Brake: Engaged
FS[15:18] Light Data: Navigation OFF
FS[15:18] Light Data: Beacon OFF
FS[15:18] Light Data: Strobe lights OFF
FS[15:18] Light Data: Instrument lights OFF
FS[15:18] Light Data: Recognition lights OFF
FS[15:18] Light Data: Wing lights OFF
FS[15:18] Light Data: Logo lights OFF
FS[15:18] Light Data: Cabin lights OFF
FS[15:18] Engine 1: Stopped
FS[15:20] Engine 1: Started
FS[15:21] Light Data: Navigation ON
FS[15:21] Light Data: Beacon ON
FS[15:21] Light Data: Landing lights ON
FS[15:21] Light Data: Taxi lights ON
FS[15:21] Light Data: Strobe lights ON
FS[15:21] Light Data: Instrument lights ON
FS[15:21] Light Data: Recognition lights ON
FS[15:21] Light Data: Wing lights ON
FS[15:21] Light Data: Logo lights ON
FS[15:21] Light Data: Cabin lights ON
FS[15:21] Light Data: Landing lights OFF
FS[15:21] Light Data: Taxi lights OFF
FS[15:22] Parking Brake: Released
FS[15:22] Flaps: Position 1
FS[15:22] Flaps: Position 0
FS[15:22] Flaps: Position 1
FS[15:22] Flaps: Position 0
FS[15:22] GS: 81 knots
FS[15:22] TAS: 80 knots
FS[15:22] IAS: 80 knots
FS[15:22] VS: 1362 fpm
FS[15:22] View Mode: Virtual Cockpit
FS[15:25] ----- Flight Resumed -----
FS[15:25] Crash Detection: Disabled
FS[15:25] Crash Detection Aircraft: Disabled
FS[15:25] Engines: 1 Piston
FS[15:25] View Mode: Virtual Cockpit
FS[15:25] FS: Paused
FS[15:25] Engine 1: Started
FS[15:25] Light Data: Navigation ON
FS[15:25] Light Data: Beacon ON
FS[15:25] Light Data: Strobe lights ON
FS[15:25] Light Data: Instrument lights ON
FS[15:25] Light Data: Recognition lights ON
FS[15:25] Light Data: Wing lights ON
FS[15:25] Light Data: Logo lights ON
FS[15:25] Light Data: Cabin lights ON
FS[15:25] Main Door Closed
FS[15:25] COM1: 122.90
FS[15:25] COM2: 122.80
FS[15:25] Transponder: 2335
FS[15:25] NAV1: 116.60
FS[15:25] NAV2: 110.50
FS[15:25] ADF1: 890.0
FS[15:25] ADF2: 890.0
FS[15:25] Navigation Mode: NAV
FS[15:25] FS: Unpaused
FS[15:25] Recovery: Flight Saved
FS[15:27] Recovery: Flight Saved
FS[15:27] Turbulence: Light
FS[15:30] Engine 1: Stopped
FS[15:30] Engine 1: Started
FS[15:31] COM1: 135.25
FS[15:31] COM1: 122.90
FS[15:31] COM1: 118.75
FS[15:34] Recovery: Flight Saved
FS[15:36] Flaps: Position 1
FS[15:36] GS: 106 knots
FS[15:36] TAS: 100 knots
FS[15:36] IAS: 102 knots
FS[15:36] VS: 496 fpm
FS[15:36] Light Data: Navigation OFF
FS[15:36] Light Data: Beacon OFF
FS[15:36] Light Data: Strobe lights OFF
FS[15:36] Light Data: Instrument lights OFF
FS[15:36] Light Data: Recognition lights OFF
FS[15:36] Light Data: Wing lights OFF
FS[15:36] Light Data: Logo lights OFF
FS[15:36] Light Data: Cabin lights OFF
FS[15:36] COM1: 122.90
FS[15:36] Light Data: Navigation ON
FS[15:36] Light Data: Beacon ON
FS[15:36] Light Data: Landing lights ON
FS[15:36] AGL: 971 ft
FS[15:36] AMSL: 1069 ft
FS[15:36] Light Data: Taxi lights ON
FS[15:36] Light Data: Strobe lights ON
FS[15:36] Light Data: Instrument lights ON
FS[15:36] Light Data: Recognition lights ON
FS[15:36] Light Data: Wing lights ON
FS[15:36] Light Data: Logo lights ON
FS[15:36] Light Data: Cabin lights ON
FS[15:36] Turbulence: None
FS[15:37] NOTE: ----- LANDED -----
FS[15:37] Landing Rate: -129.18 fpm
FS[15:37] GS: 68 knots
FS[15:37] TAS: 65 knots
FS[15:37] IAS: 61 knots
FS[15:37] VS: -130 fpm
FS[15:37] FOB: 112 lbs
FS[15:37] Heading: 211°
FS[15:37] Pitch: 2°
FS[15:37] Bank: -1°
FS[15:37] Aircraft Weight: 2202.77 lbs
FS[15:37] Nearest Airport: KAL
FS[15:37] Distance: 0.53 miles
FS[15:37] Runway: 21 - KAL
FS[15:37] Ground Surface: Gravel
FS[15:37] Ground Condition: Normal
FS[15:37] NOTE: Weather Report
FS[15:37] Wind Heading: 1°
FS[15:37] Wind Speed: 5 knots
FS[15:37] OAT: 9° C
FS[15:37] TAT: 10° C
FS[15:37] Precipitation: None
FS[15:37] Dew Point: 8° C
FS[15:37] Visibility: 9 miles
FS[15:37] METAR: KALB 191951Z 04006KT 10SM FEW035 FEW055 BKN250 23/14 A2997 RMK AO2 SLP146 T02330139KALI 191953Z AUTO 13008KT 10SM SCT039 33/23 A2989 RMK AO2 LTG DSNT SW SLP119 T03280233KALK 191956Z AUTO 23007KT 10SM SCT031 BKN041 BKN048 22/16 A3001 RMK AO2 RAB33E43 SLP073 P0000 T02220161KALM 191955Z AUTO 21014G17KT 10SM CLR 32/14 A2992 RMK AO2KALN 191952Z 16008KT 10SM FEW120 29/24 A2995KALO 191954Z 15009KT 10SM SCT010 23/21 A2991 RMK AO2 SLP126 T02280206KALS 191952Z AUTO 24008G16KT 10SM FEW070 BKN095 BKN120 24/06 A3010 RMK AO2 PK WND 24030/1932 RAB32E51 SLP098 P0000 T02440056KALW 191953Z VRB05KT 10SM CLR 19/03 A2999 RMK AO2 SLP155 T01940028KALX 191955Z AUTO 33003KT 10SM CLR 33/22 A2997 RMK AO2 T03310216
FS[15:37] View Mode: Virtual Cockpit
FS[15:37] Flaps: Position 0
FS[15:39] Parking Brake: Engaged
FS[15:39] Light Data: Landing lights OFF
FS[15:39] Light Data: Taxi lights OFF
FS[15:39] Light Data: Strobe lights OFF
FS[15:39] Light Data: Navigation OFF
FS[15:39] Light Data: Beacon OFF
FS[15:39] Light Data: Instrument lights OFF
FS[15:39] Light Data: Recognition lights OFF
FS[15:39] Light Data: Wing lights OFF
FS[15:39] Light Data: Logo lights OFF
FS[15:39] Light Data: Cabin lights OFF
FS[15:39] Engine 1: Stopped
FS[15:39] Gate: 1 - KAL
FS[15:39] NOTE: Flight Completed
FS[15:39] FS Aircraft: C207 Skywagon Bush 1
FS[15:39] FS Model: C207
FS[15:39] FS Type: Cessna
FS[15:39] FOB: 112 lbs
FS[15:39] Fuel Used: 20 lbs
FS[15:39] Flight Time: 00:32:16
FS[15:39] Flight Time (Dawn): 00:00:00
FS[15:39] Flight Time (Day): 00:32:16
FS[15:39] Flight Time (Dusk): 00:00:00
FS[15:39] Flight Time (Night): 00:00:00
FS[15:39] Total Landings: 1
FS[15:39] MaxSim Rate: 1x
FS[15:39] Cigar Box - 1.1.4.0
FS[15:39] ----- Flight Closed -----

Route Map